Time;durP1;ratioP1;P1;durP2;ratioP2;P2;SDS_P1;SDS_P2;PMS_P1;PMS_P2;Temp;Humidity;BMP_temperature;BMP_pressure;BME280_temperature;BME280_humidity;BME280_pressure;Samples;Min_cycle;Max_cycle;Signal;HPM_P1;HPM_P2
2023/12/25 00:00:33;;;;;;;9.60;2.80;;;12.00;99.90;;;;;;5011519;28;20074;-64
2023/12/25 00:02:59;;;;;;;15.15;3.75;;;11.90;99.90;;;;;;5011519;28;20056;-63
2023/12/25 00:05:25;;;;;;;12.57;2.72;;;11.90;99.90;;;;;;5010873;28;20050;-64
2023/12/25 00:07:52;;;;;;;12.40;3.10;;;11.90;99.90;;;;;;5010888;28;20053;-64
2023/12/25 00:10:18;;;;;;;12.50;2.80;;;11.90;99.90;;;;;;4994381;28;20064;-64
2023/12/25 00:12:44;;;;;;;13.98;2.50;;;11.90;99.90;;;;;;5010507;28;20046;-64
2023/12/25 00:15:11;;;;;;;9.15;2.45;;;11.90;99.90;;;;;;5010795;28;20050;-62
2023/12/25 00:17:43;;;;;;;9.60;2.83;;;11.90;99.90;;;;;;5010795;28;20049;-64
2023/12/25 00:20:10;;;;;;;11.15;3.05;;;12.00;99.90;;;;;;5011730;28;20046;-63
2023/12/25 00:22:37;;;;;;;13.07;3.17;;;11.80;99.90;;;;;;5010367;28;20376;-64
2023/12/25 00:25:04;;;;;;;14.02;3.22;;;11.90;99.90;;;;;;5010992;28;20402;-64
2023/12/25 00:27:30;;;;;;;11.70;2.75;;;11.80;99.90;;;;;;5010614;28;20529;-64
2023/12/25 00:29:57;;;;;;;13.15;3.17;;;11.80;99.90;;;;;;5011320;28;20053;-63
2023/12/25 00:32:23;;;;;;;12.30;2.42;;;11.70;99.90;;;;;;5010517;28;20050;-63
2023/12/25 00:34:49;;;;;;;9.15;2.58;;;11.70;99.90;;;;;;5011574;28;20439;-64
2023/12/25 00:37:16;;;;;;;15.80;3.10;;;11.70;99.90;;;;;;5011104;28;20046;-63
2023/12/25 00:39:42;;;;;;;12.82;3.20;;;11.70;99.90;;;;;;5010137;28;20050;-64
2023/12/25 00:42:09;;;;;;;10.63;2.45;;;11.70;99.90;;;;;;5010124;28;20053;-62
2023/12/25 00:44:41;;;;;;;13.60;3.17;;;11.60;99.90;;;;;;5009873;28;20072;-63
2023/12/25 00:47:07;;;;;;;11.02;3.10;;;11.60;99.90;;;;;;5009917;28;20425;-64
2023/12/25 00:49:34;;;;;;;10.63;2.50;;;11.60;99.90;;;;;;5010410;28;20053;-64
2023/12/25 00:52:00;;;;;;;14.70;3.22;;;11.50;99.90;;;;;;5009910;28;20053;-63
2023/12/25 00:54:27;;;;;;;14.40;2.83;;;11.50;99.90;;;;;;5026942;28;20070;-63
2023/12/25 00:57:00;;;;;;;11.30;2.97;;;11.40;99.90;;;;;;5009650;28;20489;-63
2023/12/25 00:59:27;;;;;;;15.40;2.83;;;11.40;99.90;;;;;;5010414;28;20097;-63
2023/12/25 01:01:53;;;;;;;12.88;3.47;;;11.50;99.90;;;;;;5010023;28;20054;-63
2023/12/25 01:04:19;;;;;;;16.48;3.47;;;11.40;99.90;;;;;;5010059;28;20058;-63
2023/12/25 01:06:46;;;;;;;14.27;3.78;;;11.40;99.90;;;;;;5010017;28;20053;-64
2023/12/25 01:09:12;;;;;;;11.07;2.55;;;11.50;99.90;;;;;;5009953;28;20069;-63
2023/12/25 01:11:43;;;;;;;13.98;2.85;;;11.50;99.90;;;;;;5009631;28;20068;-64
2023/12/25 01:14:10;;;;;;;19.27;3.55;;;11.60;99.90;;;;;;5011268;28;20064;-64
2023/12/25 01:16:37;;;;;;;10.98;3.20;;;11.50;99.90;;;;;;5009906;28;20054;-64
2023/12/25 01:19:04;;;;;;;16.02;3.38;;;11.50;99.90;;;;;;5009750;28;20053;-64
2023/12/25 01:21:34;;;;;;;14.38;2.90;;;11.40;99.90;;;;;;5009784;28;20383;-64
2023/12/25 01:24:04;;;;;;;14.45;2.70;;;11.40;99.90;;;;;;5009565;28;20489;-65
2023/12/25 01:26:31;;;;;;;8.38;2.83;;;11.50;99.90;;;;;;5011065;28;20057;-64
2023/12/25 01:28:57;;;;;;;11.90;2.75;;;11.40;99.90;;;;;;5011249;28;20050;-64
2023/12/25 01:31:24;;;;;;;14.68;3.22;;;11.50;99.90;;;;;;5009756;28;20053;-64
2023/12/25 01:33:50;;;;;;;16.90;3.50;;;11.40;99.90;;;;;;5009815;28;20144;-63
2023/12/25 01:36:16;;;;;;;11.25;2.55;;;11.40;99.90;;;;;;5010957;28;20322;-65
2023/12/25 01:38:46;;;;;;;13.00;2.85;;;11.40;99.90;;;;;;5009454;28;20053;-63
2023/12/25 01:41:13;;;;;;;11.13;2.70;;;11.40;99.90;;;;;;4993409;28;20046;-64
2023/12/25 01:43:39;;;;;;;13.48;3.13;;;11.40;99.90;;;;;;5009696;28;20065;-65
2023/12/25 01:46:13;;;;;;;8.90;2.35;;;11.40;99.90;;;;;;5010497;28;20133;-63
2023/12/25 01:48:45;;;;;;;12.48;2.78;;;11.20;99.90;;;;;;5009629;28;20042;-65
2023/12/25 01:51:13;;;;;;;8.93;2.80;;;11.40;99.90;;;;;;5010500;28;20470;-63
2023/12/25 01:53:40;;;;;;;15.10;2.75;;;11.40;99.90;;;;;;5009708;28;20042;-64
2023/12/25 01:56:06;;;;;;;9.48;2.70;;;11.40;99.90;;;;;;5009862;28;20286;-64
2023/12/25 01:58:33;;;;;;;12.00;2.63;;;11.30;99.90;;;;;;5013432;28;20034;-63
2023/12/25 02:00:59;;;;;;;7.20;2.33;;;11.40;99.90;;;;;;5013586;28;20045;-64
2023/12/25 02:03:25;;;;;;;9.80;2.83;;;11.40;99.90;;;;;;5013035;28;20056;-63
2023/12/25 02:05:52;;;;;;;10.73;2.40;;;11.40;99.90;;;;;;5013225;28;20065;-64
2023/12/25 02:08:19;;;;;;;12.13;2.63;;;11.40;99.90;;;;;;5012913;28;20458;-64
2023/12/25 02:10:49;;;;;;;9.02;2.75;;;11.40;99.90;;;;;;4997077;28;20462;-63
2023/12/25 02:13:15;;;;;;;15.30;2.53;;;11.50;99.90;;;;;;5012662;28;20050;-63
2023/12/25 02:15:42;;;;;;;11.07;2.20;;;11.40;99.90;;;;;;5013288;28;20072;-63
2023/12/25 02:18:09;;;;;;;8.10;2.30;;;11.40;99.90;;;;;;5012794;28;20049;-63
2023/12/25 02:20:38;;;;;;;10.25;2.47;;;11.50;99.90;;;;;;5012937;28;20050;-63
2023/12/25 02:23:10;;;;;;;13.05;2.90;;;11.40;99.90;;;;;;5013740;28;20370;-64
2023/12/25 02:25:47;;;;;;;10.90;2.30;;;11.40;99.90;;;;;;5013939;28;20046;-63
2023/12/25 02:28:14;;;;;;;7.72;2.08;;;11.40;99.90;;;;;;5014059;28;20458;-62
2023/12/25 02:30:40;;;;;;;6.97;2.55;;;11.40;99.90;;;;;;5014306;28;20058;-63
2023/12/25 02:33:07;;;;;;;9.40;2.42;;;11.40;99.90;;;;;;5014012;28;20056;-63
2023/12/25 02:35:36;;;;;;;11.38;2.08;;;11.50;99.90;;;;;;5014254;28;20435;-63
2023/12/25 02:38:02;;;;;;;6.95;2.20;;;11.40;99.90;;;;;;5014308;28;20132;-62
2023/12/25 02:40:29;;;;;;;6.05;1.92;;;11.40;99.90;;;;;;5013561;28;20430;-63
2023/12/25 02:42:55;;;;;;;8.40;1.90;;;11.40;99.90;;;;;;5013742;28;20041;-64
2023/12/25 02:45:21;;;;;;;8.05;2.17;;;11.40;99.90;;;;;;5013706;28;20490;-63
2023/12/25 02:47:48;;;;;;;9.75;2.22;;;11.50;99.90;;;;;;5013827;28;20050;-63
2023/12/25 02:50:14;;;;;;;5.88;1.88;;;11.30;99.90;;;;;;5012287;28;20075;-63
2023/12/25 02:52:41;;;;;;;9.85;1.83;;;11.30;99.90;;;;;;5013366;28;20057;-64
2023/12/25 02:55:09;;;;;;;6.15;1.60;;;11.30;99.90;;;;;;5012001;28;20121;-63
2023/12/25 02:57:36;;;;;;;6.40;2.00;;;11.30;99.90;;;;;;5013330;28;20058;-63
2023/12/25 03:00:03;;;;;;;8.38;2.08;;;11.20;99.90;;;;;;5013354;28;20133;-63
2023/12/25 03:02:29;;;;;;;7.75;1.92;;;11.30;99.90;;;;;;5012924;28;20521;-64
2023/12/25 03:04:55;;;;;;;7.22;1.83;;;11.30;99.90;;;;;;4995793;28;20054;-63
2023/12/25 03:07:22;;;;;;;5.55;1.88;;;11.30;99.90;;;;;;5011833;28;20045;-63
2023/12/25 03:09:48;;;;;;;10.60;2.30;;;11.30;99.90;;;;;;5011540;28;20053;-63
2023/12/25 03:12:16;;;;;;;6.78;1.75;;;11.30;99.90;;;;;;5011220;28;20054;-63
2023/12/25 03:14:43;;;;;;;6.35;1.67;;;11.40;99.90;;;;;;4995746;28;20356;-63
2023/12/25 03:17:09;;;;;;;8.52;2.20;;;11.40;99.90;;;;;;5012767;28;20073;-64
2023/12/25 03:19:35;;;;;;;7.13;1.67;;;11.40;99.90;;;;;;5012646;28;20053;-63
2023/12/25 03:22:03;;;;;;;8.57;1.83;;;11.40;99.90;;;;;;5012753;28;20045;-63
2023/12/25 03:24:30;;;;;;;7.03;2.05;;;11.40;99.90;;;;;;5013669;28;20061;-63
2023/12/25 03:26:56;;;;;;;8.98;2.17;;;11.40;99.90;;;;;;5012285;28;20049;-64
2023/12/25 03:29:24;;;;;;;7.05;2.25;;;11.50;99.90;;;;;;5012133;28;20057;-63
2023/12/25 03:31:50;;;;;;;4.95;1.73;;;11.30;99.90;;;;;;5012637;28;20055;-63
2023/12/25 03:34:18;;;;;;;8.05;1.90;;;11.30;99.90;;;;;;5012906;28;20050;-65
2023/12/25 03:36:45;;;;;;;7.15;2.10;;;11.30;99.90;;;;;;5011822;28;20053;-63
2023/12/25 03:39:11;;;;;;;11.07;2.20;;;11.30;99.90;;;;;;5011634;28;20053;-63
2023/12/25 03:41:37;;;;;;;8.90;2.17;;;11.30;99.90;;;;;;5011447;28;20049;-63
2023/12/25 03:44:04;;;;;;;6.15;1.73;;;11.30;99.90;;;;;;5011371;28;20437;-64
2023/12/25 03:46:33;;;;;;;7.50;2.25;;;11.30;99.90;;;;;;5011487;28;20046;-63
2023/12/25 03:48:59;;;;;;;9.80;2.83;;;11.20;99.90;;;;;;5011946;28;20458;-64
2023/12/25 03:51:26;;;;;;;6.95;1.80;;;11.20;99.90;;;;;;5012545;28;20053;-62
2023/12/25 03:53:53;;;;;;;4.80;1.40;;;11.30;99.90;;;;;;5011947;28;20072;-63
2023/12/25 03:56:21;;;;;;;8.38;1.63;;;11.20;99.90;;;;;;5011879;28;20060;-63
2023/12/25 03:58:47;;;;;;;8.05;1.85;;;11.20;99.90;;;;;;4994692;28;20096;-63
2023/12/25 04:01:15;;;;;;;7.00;1.60;;;11.30;99.90;;;;;;5011961;28;20072;-63
2023/12/25 04:03:41;;;;;;;5.95;1.60;;;11.20;99.90;;;;;;5012095;28;20037;-64
2023/12/25 04:06:21;;;;;;;7.70;1.73;;;11.30;99.90;;;;;;5010741;28;20050;-63
2023/12/25 04:08:47;;;;;;;6.45;1.77;;;11.30;99.90;;;;;;5010779;28;20053;-63
2023/12/25 04:11:20;;;;;;;9.98;2.13;;;11.30;99.90;;;;;;5010877;28;20390;-64
2023/12/25 04:13:48;;;;;;;10.98;2.17;;;11.30;99.90;;;;;;5011263;28;20085;-64
2023/12/25 04:16:21;;;;;;;4.95;1.63;;;11.30;99.90;;;;;;5011107;28;20053;-63
2023/12/25 04:18:48;;;;;;;6.05;1.92;;;11.30;99.90;;;;;;5010903;28;20470;-64
2023/12/25 04:21:30;;;;;;;4.80;2.10;;;11.30;99.90;;;;;;5011507;28;20054;-63
2023/12/25 04:23:57;;;;;;;7.57;1.67;;;11.30;99.90;;;;;;5010626;28;20382;-64
2023/12/25 04:26:25;;;;;;;6.85;1.67;;;11.30;99.90;;;;;;5011187;28;20053;-64
2023/12/25 04:28:52;;;;;;;5.05;1.52;;;11.30;99.90;;;;;;5010643;28;20065;-63
2023/12/25 04:31:18;;;;;;;8.75;1.80;;;11.30;99.90;;;;;;5010138;28;20099;-63
2023/12/25 04:33:45;;;;;;;5.85;1.50;;;11.30;99.90;;;;;;5010970;28;20057;-63
2023/12/25 04:36:16;;;;;;;7.00;1.83;;;11.30;99.90;;;;;;5010734;28;20046;-63
2023/12/25 04:38:43;;;;;;;6.55;1.90;;;11.30;99.90;;;;;;5011313;28;20282;-63
2023/12/25 04:41:09;;;;;;;5.43;1.85;;;11.30;99.90;;;;;;5011190;28;20050;-64
2023/12/25 04:43:36;;;;;;;9.07;2.55;;;11.30;99.90;;;;;;5011163;28;20060;-63
2023/12/25 04:46:02;;;;;;;6.28;1.63;;;11.30;99.90;;;;;;4994064;28;20053;-63
2023/12/25 04:48:29;;;;;;;8.10;1.70;;;11.30;99.90;;;;;;5011015;28;20108;-63
2023/12/25 04:50:59;;;;;;;7.38;1.95;;;11.30;99.90;;;;;;5011318;28;20064;-63
2023/12/25 04:53:25;;;;;;;5.72;1.67;;;11.20;99.90;;;;;;5010698;28;20495;-63
2023/12/25 04:55:52;;;;;;;6.65;1.85;;;11.20;99.90;;;;;;5009801;28;20053;-65
2023/12/25 04:58:19;;;;;;;12.73;2.35;;;11.30;99.90;;;;;;5011273;28;20151;-63
2023/12/25 05:00:45;;;;;;;8.30;1.83;;;11.20;99.90;;;;;;5011235;28;20042;-63
2023/12/25 05:03:12;;;;;;;13.10;3.08;;;11.30;99.90;;;;;;5009811;28;20042;-63
2023/12/25 05:05:38;;;;;;;6.68;1.90;;;11.30;99.90;;;;;;5009717;28;20046;-63
2023/12/25 05:08:08;;;;;;;7.57;2.00;;;11.30;99.90;;;;;;5009317;28;20474;-63
2023/12/25 05:10:34;;;;;;;9.60;2.17;;;11.30;99.90;;;;;;5010717;28;20072;-64
2023/12/25 05:13:00;;;;;;;10.60;2.15;;;11.30;99.90;;;;;;5009216;28;20057;-62
2023/12/25 05:15:27;;;;;;;8.82;2.10;;;11.30;99.90;;;;;;5010861;28;20050;-64
2023/12/25 05:17:53;;;;;;;8.80;1.90;;;11.30;99.90;;;;;;5009614;28;20374;-64
2023/12/25 05:20:21;;;;;;;7.88;2.17;;;11.30;99.90;;;;;;5008990;28;20339;-64
2023/12/25 05:22:47;;;;;;;10.00;2.28;;;11.20;99.90;;;;;;5010441;28;20050;-64
2023/12/25 05:25:13;;;;;;;11.35;2.58;;;11.20;99.90;;;;;;5010542;28;20065;-63
2023/12/25 05:27:40;;;;;;;9.98;2.38;;;11.30;99.90;;;;;;5009289;28;20045;-64
2023/12/25 05:30:08;;;;;;;8.27;2.00;;;11.20;99.90;;;;;;5010781;28;20049;-63
2023/12/25 05:32:35;;;;;;;14.13;2.92;;;11.20;99.90;;;;;;5012866;28;20395;-64
2023/12/25 05:35:04;;;;;;;8.93;2.38;;;11.20;99.90;;;;;;5014494;28;20465;-63
2023/12/25 05:37:31;;;;;;;12.40;1.95;;;11.10;99.90;;;;;;5014403;28;20477;-64
2023/12/25 05:39:57;;;;;;;7.18;1.80;;;11.10;99.90;;;;;;4997245;28;20065;-64
2023/12/25 05:42:24;;;;;;;13.32;2.47;;;11.10;99.90;;;;;;5014612;28;20381;-63
2023/12/25 05:44:50;;;;;;;11.48;1.77;;;11.10;99.90;;;;;;5013615;28;20050;-64
2023/12/25 05:47:16;;;;;;;10.35;1.75;;;11.10;99.90;;;;;;5014428;28;20496;-64
2023/12/25 05:49:43;;;;;;;11.52;2.60;;;11.10;99.90;;;;;;5013341;28;20084;-63
2023/12/25 05:52:09;;;;;;;10.13;2.00;;;11.00;99.90;;;;;;5012608;28;20695;-64
2023/12/25 05:54:35;;;;;;;6.85;1.92;;;11.10;99.90;;;;;;5013631;28;20157;-63
2023/12/25 05:57:02;;;;;;;8.82;2.40;;;11.10;99.90;;;;;;5013161;28;20076;-63
2023/12/25 05:59:29;;;;;;;8.77;2.00;;;11.00;99.90;;;;;;5013374;28;20489;-63
2023/12/25 06:01:56;;;;;;;6.78;2.10;;;11.00;99.90;;;;;;4996955;28;20061;-64
2023/12/25 06:04:22;;;;;;;12.85;2.20;;;11.00;99.90;;;;;;5013342;28;20057;-63
2023/12/25 06:06:50;;;;;;;10.75;2.85;;;11.00;99.90;;;;;;5012904;28;20080;-64
2023/12/25 06:09:16;;;;;;;8.18;2.05;;;10.90;99.90;;;;;;5013157;28;20050;-64
2023/12/25 06:11:45;;;;;;;10.57;2.17;;;11.10;99.90;;;;;;4996031;28;20482;-64
2023/12/25 06:14:11;;;;;;;5.88;1.73;;;11.00;99.90;;;;;;5014394;28;20046;-64
2023/12/25 06:16:37;;;;;;;9.02;2.20;;;11.00;99.90;;;;;;5013952;28;20069;-64
2023/12/25 06:19:04;;;;;;;10.05;2.00;;;11.00;99.90;;;;;;4996438;28;20053;-63
2023/12/25 06:21:30;;;;;;;8.73;2.17;;;11.00;99.90;;;;;;5014263;28;20141;-64
2023/12/25 06:23:56;;;;;;;6.10;1.67;;;10.90;99.90;;;;;;5014370;28;20054;-63
2023/12/25 06:26:23;;;;;;;9.70;1.85;;;10.90;99.90;;;;;;5014332;28;20046;-63
2023/12/25 06:28:49;;;;;;;6.70;2.38;;;10.90;99.90;;;;;;5013213;28;20110;-63
2023/12/25 06:31:15;;;;;;;6.07;1.60;;;10.90;99.90;;;;;;4996373;28;20054;-64
2023/12/25 06:33:45;;;;;;;8.35;2.35;;;10.90;99.90;;;;;;5013044;28;20073;-65
2023/12/25 06:36:11;;;;;;;8.13;2.00;;;10.90;99.90;;;;;;5013742;28;20144;-63
2023/12/25 06:38:37;;;;;;;6.75;1.70;;;10.90;99.90;;;;;;5013301;28;20410;-63
2023/12/25 06:41:04;;;;;;;7.57;1.50;;;10.80;99.90;;;;;;5012525;28;20041;-63
2023/12/25 06:43:39;;;;;;;6.90;1.65;;;10.80;99.90;;;;;;5012565;28;20425;-63
2023/12/25 06:46:05;;;;;;;7.55;2.05;;;10.80;99.90;;;;;;5013632;28;20060;-63
2023/12/25 06:48:32;;;;;;;5.82;1.65;;;10.70;99.90;;;;;;5012718;28;20054;-62
2023/12/25 06:50:59;;;;;;;9.18;2.15;;;10.70;99.90;;;;;;5012211;28;20050;-63
2023/12/25 06:53:26;;;;;;;8.98;1.88;;;10.70;99.90;;;;;;5012681;28;20046;-62
2023/12/25 06:55:52;;;;;;;7.50;2.35;;;10.70;99.90;;;;;;4996029;28;20164;-63
2023/12/25 06:58:20;;;;;;;8.77;2.00;;;10.60;99.90;;;;;;5013484;28;20053;-63
2023/12/25 07:00:49;;;;;;;11.10;2.00;;;10.60;99.90;;;;;;5012171;28;20049;-63
2023/12/25 07:03:15;;;;;;;8.10;1.75;;;10.50;99.90;;;;;;5012399;28;20046;-62
2023/12/25 07:05:42;;;;;;;6.22;1.63;;;10.60;99.90;;;;;;5012228;28;20046;-63
2023/12/25 07:08:09;;;;;;;6.13;1.50;;;10.60;99.90;;;;;;5011876;28;20538;-62
2023/12/25 07:10:40;;;;;;;9.18;2.08;;;10.50;99.90;;;;;;5012226;28;20057;-62
2023/12/25 07:13:07;;;;;;;10.40;1.70;;;10.60;99.90;;;;;;5011941;28;20054;-62
2023/12/25 07:15:34;;;;;;;6.38;1.80;;;10.50;99.90;;;;;;4995639;28;20053;-62
2023/12/25 07:18:00;;;;;;;6.90;1.77;;;10.50;99.90;;;;;;5012073;28;20444;-63
2023/12/25 07:20:26;;;;;;;7.93;1.67;;;10.50;99.90;;;;;;5012040;28;20057;-62
2023/12/25 07:22:52;;;;;;;5.63;1.67;;;10.40;99.90;;;;;;5011744;28;20457;-63
2023/12/25 07:25:19;;;;;;;6.20;1.60;;;10.40;99.90;;;;;;5011917;28;20054;-63
2023/12/25 07:27:45;;;;;;;4.93;1.45;;;10.40;99.90;;;;;;5012100;28;20058;-61
2023/12/25 07:30:12;;;;;;;4.10;1.50;;;10.40;99.90;;;;;;5011451;28;20073;-62
2023/12/25 07:32:40;;;;;;;4.47;1.40;;;10.30;99.90;;;;;;5011212;28;20049;-62
2023/12/25 07:35:07;;;;;;;6.55;1.83;;;10.20;99.90;;;;;;5011680;28;20054;-61
2023/12/25 07:37:33;;;;;;;4.40;1.42;;;10.20;99.90;;;;;;5013055;28;20159;-63
2023/12/25 07:40:00;;;;;;;5.85;1.95;;;10.20;99.90;;;;;;5012062;28;20108;-63
2023/12/25 07:42:26;;;;;;;5.93;1.98;;;10.10;99.90;;;;;;5012205;28;20072;-62
2023/12/25 07:44:52;;;;;;;7.25;1.90;;;10.10;99.90;;;;;;5011892;28;20358;-63
2023/12/25 07:47:19;;;;;;;5.75;1.70;;;10.10;99.90;;;;;;5011964;28;20068;-62
2023/12/25 07:49:45;;;;;;;4.85;1.20;;;10.10;99.90;;;;;;5012004;28;20053;-63
2023/12/25 07:52:14;;;;;;;5.70;1.52;;;10.10;99.90;;;;;;5010938;28;20133;-62
2023/12/25 07:54:41;;;;;;;5.47;1.70;;;10.00;99.90;;;;;;5012140;28;20049;-63
2023/12/25 07:57:07;;;;;;;9.93;2.10;;;10.00;99.90;;;;;;5012054;28;20061;-63
2023/12/25 07:59:40;;;;;;;6.70;1.58;;;10.00;99.90;;;;;;5010939;28;20050;-62
2023/12/25 08:02:06;;;;;;;8.15;1.70;;;10.00;99.90;;;;;;5010654;28;20056;-63
2023/12/25 08:04:34;;;;;;;5.97;1.80;;;10.00;99.90;;;;;;5011123;28;20065;-63
2023/12/25 08:07:08;;;;;;;7.55;1.88;;;10.00;99.90;;;;;;5012376;28;20046;-63
2023/12/25 08:09:35;;;;;;;10.05;1.88;;;10.00;99.90;;;;;;5012308;28;20045;-62
2023/12/25 08:12:01;;;;;;;8.10;1.75;;;9.90;99.90;;;;;;5012262;28;20054;-62
2023/12/25 08:14:27;;;;;;;7.00;1.83;;;9.90;99.90;;;;;;5011270;28;20073;-62
2023/12/25 08:16:54;;;;;;;8.93;2.28;;;9.90;99.90;;;;;;5011341;28;20056;-63
2023/12/25 08:19:20;;;;;;;7.32;2.10;;;9.90;99.90;;;;;;5011017;28;20064;-63
2023/12/25 08:21:50;;;;;;;4.53;1.65;;;9.90;99.90;;;;;;5010049;28;20049;-64
2023/12/25 08:24:17;;;;;;;4.90;1.55;;;9.90;99.90;;;;;;5002279;28;20058;-63
2023/12/25 08:26:43;;;;;;;7.70;1.60;;;10.00;99.90;;;;;;5001713;28;20042;-63
2023/12/25 08:29:15;;;;;;;6.32;1.65;;;9.90;99.90;;;;;;5002094;28;20041;-63
2023/12/25 08:31:41;;;;;;;7.43;1.80;;;9.90;99.90;;;;;;4999287;28;20053;-64
2023/12/25 08:34:08;;;;;;;8.15;1.73;;;9.90;99.90;;;;;;4975658;28;20385;-62
2023/12/25 08:36:34;;;;;;;7.30;2.00;;;9.90;99.90;;;;;;4990872;28;20050;-63
2023/12/25 08:39:01;;;;;;;8.48;2.03;;;10.00;99.90;;;;;;4995499;28;20050;-62
2023/12/25 08:41:27;;;;;;;9.43;1.90;;;9.90;99.90;;;;;;4994385;28;20049;-62
2023/12/25 08:43:59;;;;;;;6.28;1.85;;;9.90;99.90;;;;;;5011075;28;20064;-63
2023/12/25 08:46:27;;;;;;;7.93;2.78;;;9.90;99.90;;;;;;5026809;28;20485;-63
2023/12/25 08:48:54;;;;;;;11.48;2.13;;;10.00;99.90;;;;;;5012071;28;20061;-63
2023/12/25 08:51:20;;;;;;;8.10;1.80;;;10.00;99.90;;;;;;5011461;28;20374;-62
2023/12/25 08:53:46;;;;;;;8.02;2.00;;;10.00;99.90;;;;;;5010249;28;20053;-62
2023/12/25 08:56:22;;;;;;;7.78;2.30;;;10.00;99.90;;;;;;5006154;28;20056;-63
2023/12/25 08:58:49;;;;;;;8.43;2.10;;;10.00;99.90;;;;;;4995925;28;20844;-64
2023/12/25 09:01:15;;;;;;;9.50;1.88;;;10.00;99.90;;;;;;4982009;28;20056;-62
2023/12/25 09:03:41;;;;;;;10.13;1.63;;;10.00;99.90;;;;;;5007661;28;20049;-63
2023/12/25 09:06:13;;;;;;;6.38;1.67;;;10.10;99.90;;;;;;5006743;28;20034;-63
2023/12/25 09:08:39;;;;;;;4.95;1.80;;;10.10;99.90;;;;;;4999813;28;20050;-63
2023/12/25 09:11:07;;;;;;;12.23;2.75;;;10.10;99.90;;;;;;5002189;28;20059;-65
2023/12/25 09:13:34;;;;;;;9.70;2.65;;;10.10;99.90;;;;;;5009713;28;20581;-64
2023/12/25 09:16:00;;;;;;;5.30;1.70;;;10.10;99.90;;;;;;5001175;28;20057;-62
2023/12/25 09:18:27;;;;;;;9.68;2.08;;;10.10;99.90;;;;;;5009790;28;20057;-65
2023/12/25 09:20:58;;;;;;;5.28;1.80;;;10.10;99.90;;;;;;5008680;28;20478;-62
2023/12/25 09:23:24;;;;;;;7.57;2.42;;;10.10;99.90;;;;;;5008905;28;20042;-64
2023/12/25 09:25:50;;;;;;;11.30;2.55;;;10.20;99.90;;;;;;5008493;28;20058;-65
2023/12/25 09:28:17;;;;;;;15.30;3.05;;;10.10;99.90;;;;;;5008866;28;20050;-63
2023/12/25 09:30:48;;;;;;;9.20;2.03;;;10.10;99.90;;;;;;5005998;28;20332;-64
2023/12/25 09:33:17;;;;;;;10.85;2.65;;;10.10;99.90;;;;;;5008856;28;20046;-63
2023/12/25 09:35:43;;;;;;;8.75;2.40;;;10.10;99.90;;;;;;5008525;28;20461;-63
2023/12/25 09:38:09;;;;;;;9.45;2.00;;;10.10;99.90;;;;;;5008259;28;20072;-63
2023/12/25 09:40:42;;;;;;;11.27;2.13;;;10.10;99.90;;;;;;5013686;28;20057;-64
2023/12/25 09:43:10;;;;;;;10.13;2.47;;;10.10;99.90;;;;;;5009512;28;20053;-66
2023/12/25 09:45:37;;;;;;;12.05;2.25;;;10.10;99.90;;;;;;5007783;28;20056;-63
2023/12/25 09:48:06;;;;;;;7.18;2.10;;;10.00;99.90;;;;;;5008163;28;20041;-63
2023/12/25 09:50:36;;;;;;;7.78;1.75;;;10.00;99.90;;;;;;5009279;28;20057;-66
2023/12/25 09:53:03;;;;;;;8.07;1.88;;;10.00;99.90;;;;;;5008298;28;20058;-63
2023/12/25 09:55:29;;;;;;;9.15;2.35;;;10.00;99.90;;;;;;5009810;28;20050;-64
2023/12/25 09:58:02;;;;;;;4.65;1.90;;;10.10;99.90;;;;;;5008431;28;20505;-63
2023/12/25 10:00:28;;;;;;;8.48;1.70;;;10.10;99.90;;;;;;5008056;28;20068;-64
2023/12/25 10:02:57;;;;;;;7.03;1.90;;;10.10;99.90;;;;;;5008327;28;20046;-64
2023/12/25 10:05:23;;;;;;;8.93;2.00;;;10.20;99.90;;;;;;5008321;28;20053;-63
2023/12/25 10:07:50;;;;;;;7.50;2.03;;;10.30;99.90;;;;;;5008266;28;20050;-63
2023/12/25 10:10:16;;;;;;;6.65;1.90;;;10.30;99.90;;;;;;5009221;28;20382;-64
2023/12/25 10:12:44;;;;;;;9.32;2.90;;;10.30;99.90;;;;;;5007815;28;20093;-64
2023/12/25 10:15:14;;;;;;;8.30;1.90;;;10.40;99.90;;;;;;4992240;28;20046;-65
2023/12/25 10:17:41;;;;;;;10.73;2.05;;;10.50;99.90;;;;;;5009425;28;20134;-63
2023/12/25 10:20:10;;;;;;;14.05;2.13;;;10.50;99.90;;;;;;5011821;28;20049;-63
2023/12/25 10:22:38;;;;;;;7.07;1.85;;;10.60;99.90;;;;;;5010438;28;20053;-63
2023/12/25 10:25:07;;;;;;;7.00;2.08;;;10.60;99.90;;;;;;5007831;28;20510;-64
2023/12/25 10:27:36;;;;;;;6.53;2.30;;;10.60;99.90;;;;;;4992086;28;20053;-64
2023/12/25 10:30:28;;;;;;;6.90;1.88;;;10.60;99.90;;;;;;5011792;28;20115;-64
2023/12/25 10:33:08;;;;;;;8.98;2.10;;;10.70;99.90;;;;;;4993297;28;20057;-64
2023/12/25 10:35:37;;;;;;;10.25;2.42;;;10.80;99.90;;;;;;4993143;28;20152;-65
2023/12/25 10:38:05;;;;;;;7.70;2.08;;;10.80;99.90;;;;;;4992765;28;20459;-64
2023/12/25 10:40:32;;;;;;;6.53;1.90;;;10.80;99.90;;;;;;5007466;28;20429;-64
2023/12/25 10:42:59;;;;;;;7.25;2.53;;;10.80;99.90;;;;;;5012524;28;20358;-64
2023/12/25 10:45:30;;;;;;;10.55;2.22;;;10.80;99.90;;;;;;5012703;28;20402;-63
2023/12/25 10:47:58;;;;;;;6.28;1.83;;;10.80;99.90;;;;;;5012600;28;20049;-64
2023/12/25 10:50:27;;;;;;;6.40;1.90;;;10.70;99.90;;;;;;5012181;28;20042;-63
2023/12/25 10:53:03;;;;;;;8.93;2.28;;;10.70;99.90;;;;;;5011200;28;20439;-62
2023/12/25 10:55:41;;;;;;;9.30;2.30;;;10.70;99.90;;;;;;5010941;28;20037;-64
2023/12/25 10:58:16;;;;;;;7.63;1.92;;;10.70;99.90;;;;;;4991363;28;20490;-63
2023/12/25 11:00:53;;;;;;;4.85;1.80;;;10.70;99.90;;;;;;5007800;28;20054;-63
2023/12/25 11:03:20;;;;;;;;;;;10.70;99.90;;;;;;5011478;28;20042;-63
2023/12/25 11:05:48;;;;;;;5.97;1.95;;;10.70;99.90;;;;;;5011136;28;20234;-64
2023/12/25 11:08:16;;;;;;;6.95;1.67;;;10.80;99.90;;;;;;4994430;28;20060;-64
2023/12/25 11:10:43;;;;;;;8.45;2.40;;;10.80;99.90;;;;;;5010278;28;20048;-64
2023/12/25 11:13:09;;;;;;;6.80;2.10;;;10.90;99.90;;;;;;5010850;28;20050;-64
2023/12/25 11:15:35;;;;;;;5.78;1.88;;;10.90;99.90;;;;;;5010783;28;20462;-63
2023/12/25 11:18:03;;;;;;;7.10;2.40;;;10.90;99.90;;;;;;4994327;28;20463;-64
2023/12/25 11:20:30;;;;;;;5.70;1.70;;;10.90;99.90;;;;;;5010083;28;20053;-63
2023/12/25 11:22:57;;;;;;;8.27;2.15;;;10.90;99.90;;;;;;5027372;28;20438;-63
2023/12/25 11:25:28;;;;;;;7.95;2.20;;;11.00;99.90;;;;;;5010481;28;20469;-63
2023/12/25 11:27:55;;;;;;;5.25;1.92;;;11.00;99.90;;;;;;5011555;28;20057;-64
2023/12/25 11:30:25;;;;;;;7.28;2.40;;;11.00;99.90;;;;;;5009002;28;20165;-64
2023/12/25 11:32:53;;;;;;;9.50;1.90;;;11.00;99.90;;;;;;5009759;28;20044;-64
2023/12/25 11:35:28;;;;;;;13.90;2.67;;;11.00;99.90;;;;;;5010321;28;20042;-63
2023/12/25 11:38:19;;;;;;;7.53;2.03;;;11.00;99.90;;;;;;5010332;28;20058;-63
2023/12/25 11:40:59;;;;;;;6.53;2.45;;;11.00;99.90;;;;;;4993487;28;20049;-64
2023/12/25 11:43:25;;;;;;;8.13;1.67;;;10.90;99.90;;;;;;5010463;28;20053;-63
2023/12/25 11:45:54;;;;;;;6.28;2.22;;;10.90;99.90;;;;;;5010469;28;20090;-63
2023/12/25 11:48:20;;;;;;;7.38;2.10;;;11.00;99.90;;;;;;5010345;28;20038;-63
2023/12/25 11:50:59;;;;;;;9.05;2.40;;;10.90;99.90;;;;;;5009613;28;20058;-63
2023/12/25 11:53:36;;;;;;;8.25;1.77;;;11.00;99.90;;;;;;4993752;28;20057;-63
2023/12/25 11:56:04;;;;;;;4.97;1.85;;;11.00;99.90;;;;;;5026332;28;20056;-64
2023/12/25 11:58:31;;;;;;;8.52;2.00;;;11.00;99.90;;;;;;5009732;28;20045;-63
2023/12/25 12:00:57;;;;;;;7.90;2.10;;;11.00;99.90;;;;;;5009616;28;20049;-64
2023/12/25 12:03:23;;;;;;;10.70;2.47;;;10.90;99.90;;;;;;5009976;28;20057;-63
2023/12/25 12:05:50;;;;;;;5.90;1.80;;;11.00;99.90;;;;;;5009827;28;20050;-63
2023/12/25 12:08:16;;;;;;;7.45;2.40;;;11.00;99.90;;;;;;5009825;28;20438;-64
2023/12/25 12:10:42;;;;;;;6.32;2.60;;;11.00;99.90;;;;;;5009421;28;20060;-64
2023/12/25 12:13:12;;;;;;;7.28;2.10;;;11.00;99.90;;;;;;5009518;28;20474;-65
2023/12/25 12:15:38;;;;;;;7.88;2.25;;;11.10;99.90;;;;;;4993854;28;20045;-63
2023/12/25 12:18:05;;;;;;;5.00;2.20;;;11.00;99.90;;;;;;5009735;28;20050;-64
2023/12/25 12:20:32;;;;;;;7.63;2.03;;;11.10;99.90;;;;;;5009267;28;20054;-64
2023/12/25 12:22:58;;;;;;;6.57;2.15;;;11.10;99.90;;;;;;5009244;28;20371;-64
2023/12/25 12:25:28;;;;;;;9.45;2.40;;;11.10;99.90;;;;;;5009811;28;20046;-64
2023/12/25 12:28:01;;;;;;;7.72;2.10;;;11.10;99.90;;;;;;5009702;28;20678;-63
2023/12/25 12:30:28;;;;;;;4.55;2.10;;;11.20;99.90;;;;;;5024141;28;20054;-65
2023/12/25 12:32:54;;;;;;;10.15;2.58;;;11.20;99.90;;;;;;4991908;28;20049;-64
2023/12/25 12:35:20;;;;;;;9.88;2.92;;;11.20;99.90;;;;;;5008149;28;20482;-63
2023/12/25 12:37:48;;;;;;;7.38;1.90;;;11.20;99.90;;;;;;4992736;28;20062;-64
2023/12/25 12:40:15;;;;;;;8.65;1.90;;;11.20;99.90;;;;;;5009010;28;20064;-65
2023/12/25 12:42:41;;;;;;;6.25;2.00;;;11.20;99.90;;;;;;5009207;28;20079;-63
2023/12/25 12:45:09;;;;;;;6.22;2.03;;;11.20;99.90;;;;;;5009154;28;20053;-63
2023/12/25 12:47:35;;;;;;;8.43;2.75;;;11.20;99.90;;;;;;5009129;28;20052;-64